sensor_id;sensor_type;location;lat;lon;timestamp;P1;durP1;ratioP1;P2;durP2;ratioP2
59976;SDS011;45837;51.076;3.578;2022-11-04T00:01:47;3.30;;;1.75;;
59976;SDS011;45837;51.076;3.578;2022-11-04T00:04:14;3.53;;;1.60;;
59976;SDS011;45837;51.076;3.578;2022-11-04T00:06:41;3.72;;;2.00;;
59976;SDS011;45837;51.076;3.578;2022-11-04T00:09:08;4.70;;;2.00;;
59976;SDS011;45837;51.076;3.578;2022-11-04T00:11:36;4.22;;;1.80;;
59976;SDS011;45837;51.076;3.578;2022-11-04T00:14:20;3.92;;;1.85;;
59976;SDS011;45837;51.076;3.578;2022-11-04T00:16:47;3.28;;;1.77;;
59976;SDS011;45837;51.076;3.578;2022-11-04T00:19:31;3.17;;;1.90;;
59976;SDS011;45837;51.076;3.578;2022-11-04T00:22:17;3.97;;;1.88;;
59976;SDS011;45837;51.076;3.578;2022-11-04T00:27:46;3.35;;;2.03;;
59976;SDS011;45837;51.076;3.578;2022-11-04T00:30:30;3.75;;;1.65;;
59976;SDS011;45837;51.076;3.578;2022-11-04T00:32:56;3.33;;;1.85;;
59976;SDS011;45837;51.076;3.578;2022-11-04T00:35:46;3.57;;;1.90;;
59976;SDS011;45837;51.076;3.578;2022-11-04T00:38:13;4.25;;;2.17;;
59976;SDS011;45837;51.076;3.578;2022-11-04T00:40:39;3.88;;;1.90;;
59976;SDS011;45837;51.076;3.578;2022-11-04T00:43:05;3.13;;;1.70;;
59976;SDS011;45837;51.076;3.578;2022-11-04T00:45:31;2.88;;;1.80;;
59976;SDS011;45837;51.076;3.578;2022-11-04T00:47:57;3.17;;;1.90;;
59976;SDS011;45837;51.076;3.578;2022-11-04T00:50:22;3.45;;;1.67;;
59976;SDS011;45837;51.076;3.578;2022-11-04T00:52:48;4.75;;;2.45;;
59976;SDS011;45837;51.076;3.578;2022-11-04T00:55:14;3.90;;;1.85;;
59976;SDS011;45837;51.076;3.578;2022-11-04T00:57:40;3.97;;;1.90;;
59976;SDS011;45837;51.076;3.578;2022-11-04T01:00:06;3.35;;;1.77;;
59976;SDS011;45837;51.076;3.578;2022-11-04T01:02:32;3.78;;;2.03;;
59976;SDS011;45837;51.076;3.578;2022-11-04T01:04:58;2.80;;;1.88;;
59976;SDS011;45837;51.076;3.578;2022-11-04T01:07:23;3.55;;;1.50;;
59976;SDS011;45837;51.076;3.578;2022-11-04T01:09:49;3.45;;;1.80;;
59976;SDS011;45837;51.076;3.578;2022-11-04T01:12:15;4.63;;;1.83;;
59976;SDS011;45837;51.076;3.578;2022-11-04T01:14:41;3.45;;;1.88;;
59976;SDS011;45837;51.076;3.578;2022-11-04T01:17:07;2.65;;;1.60;;
59976;SDS011;45837;51.076;3.578;2022-11-04T01:19:33;3.17;;;1.70;;
59976;SDS011;45837;51.076;3.578;2022-11-04T01:21:59;3.20;;;1.80;;
59976;SDS011;45837;51.076;3.578;2022-11-04T01:24:25;2.60;;;1.48;;
59976;SDS011;45837;51.076;3.578;2022-11-04T01:26:50;2.83;;;1.48;;
59976;SDS011;45837;51.076;3.578;2022-11-04T01:29:16;3.13;;;1.75;;
59976;SDS011;45837;51.076;3.578;2022-11-04T01:31:42;3.90;;;2.00;;
59976;SDS011;45837;51.076;3.578;2022-11-04T01:34:08;4.97;;;1.92;;
59976;SDS011;45837;51.076;3.578;2022-11-04T01:36:33;3.60;;;1.80;;
59976;SDS011;45837;51.076;3.578;2022-11-04T01:38:59;2.75;;;1.73;;
59976;SDS011;45837;51.076;3.578;2022-11-04T01:41:27;3.33;;;1.80;;
59976;SDS011;45837;51.076;3.578;2022-11-04T01:44:01;3.28;;;1.80;;
59976;SDS011;45837;51.076;3.578;2022-11-04T01:46:48;4.05;;;1.50;;
59976;SDS011;45837;51.076;3.578;2022-11-04T01:52:03;2.72;;;1.40;;
59976;SDS011;45837;51.076;3.578;2022-11-04T01:54:33;2.30;;;1.38;;
59976;SDS011;45837;51.076;3.578;2022-11-04T01:57:00;3.13;;;1.67;;
59976;SDS011;45837;51.076;3.578;2022-11-04T01:59:29;3.22;;;1.70;;
59976;SDS011;45837;51.076;3.578;2022-11-04T02:01:59;3.67;;;1.63;;
59976;SDS011;45837;51.076;3.578;2022-11-04T02:04:25;2.65;;;1.50;;
59976;SDS011;45837;51.076;3.578;2022-11-04T02:06:58;2.45;;;1.48;;
59976;SDS011;45837;51.076;3.578;2022-11-04T02:09:27;2.63;;;1.73;;
59976;SDS011;45837;51.076;3.578;2022-11-04T02:11:55;2.70;;;1.45;;
59976;SDS011;45837;51.076;3.578;2022-11-04T02:17:20;2.63;;;1.70;;
59976;SDS011;45837;51.076;3.578;2022-11-04T02:22:40;2.22;;;1.33;;
59976;SDS011;45837;51.076;3.578;2022-11-04T02:25:40;3.78;;;1.65;;
59976;SDS011;45837;51.076;3.578;2022-11-04T02:33:54;2.90;;;1.40;;
59976;SDS011;45837;51.076;3.578;2022-11-04T02:38:56;3.88;;;1.80;;
59976;SDS011;45837;51.076;3.578;2022-11-04T02:41:40;3.00;;;1.40;;
59976;SDS011;45837;51.076;3.578;2022-11-04T02:44:21;3.30;;;1.45;;
59976;SDS011;45837;51.076;3.578;2022-11-04T02:46:53;4.00;;;1.75;;
59976;SDS011;45837;51.076;3.578;2022-11-04T02:49:27;2.92;;;1.58;;
59976;SDS011;45837;51.076;3.578;2022-11-04T02:51:59;2.38;;;1.20;;
59976;SDS011;45837;51.076;3.578;2022-11-04T02:54:33;2.90;;;1.50;;
59976;SDS011;45837;51.076;3.578;2022-11-04T02:57:17;2.38;;;1.42;;
59976;SDS011;45837;51.076;3.578;2022-11-04T02:59:54;2.10;;;1.20;;
59976;SDS011;45837;51.076;3.578;2022-11-04T03:02:33;2.40;;;1.23;;
59976;SDS011;45837;51.076;3.578;2022-11-04T03:05:15;3.00;;;1.65;;
59976;SDS011;45837;51.076;3.578;2022-11-04T03:07:45;2.85;;;1.48;;
59976;SDS011;45837;51.076;3.578;2022-11-04T03:10:15;2.72;;;1.52;;
59976;SDS011;45837;51.076;3.578;2022-11-04T03:12:58;2.70;;;1.40;;
59976;SDS011;45837;51.076;3.578;2022-11-04T03:15:30;3.17;;;1.58;;
59976;SDS011;45837;51.076;3.578;2022-11-04T03:18:02;2.90;;;1.65;;
59976;SDS011;45837;51.076;3.578;2022-11-04T03:20:37;2.60;;;1.25;;
59976;SDS011;45837;51.076;3.578;2022-11-04T03:23:05;2.42;;;1.40;;
59976;SDS011;45837;51.076;3.578;2022-11-04T03:25:38;3.55;;;1.52;;
59976;SDS011;45837;51.076;3.578;2022-11-04T03:31:03;2.88;;;1.38;;
59976;SDS011;45837;51.076;3.578;2022-11-04T03:33:37;2.58;;;1.45;;
59976;SDS011;45837;51.076;3.578;2022-11-04T03:36:09;2.75;;;1.48;;
59976;SDS011;45837;51.076;3.578;2022-11-04T03:38:35;3.72;;;1.70;;
59976;SDS011;45837;51.076;3.578;2022-11-04T03:41:03;2.55;;;1.50;;
59976;SDS011;45837;51.076;3.578;2022-11-04T03:43:46;2.05;;;1.48;;
59976;SDS011;45837;51.076;3.578;2022-11-04T03:46:11;2.40;;;1.52;;
59976;SDS011;45837;51.076;3.578;2022-11-04T03:48:37;2.28;;;1.30;;
59976;SDS011;45837;51.076;3.578;2022-11-04T03:51:04;3.03;;;1.52;;
59976;SDS011;45837;51.076;3.578;2022-11-04T03:53:30;2.80;;;1.45;;
59976;SDS011;45837;51.076;3.578;2022-11-04T03:58:54;3.42;;;1.60;;
59976;SDS011;45837;51.076;3.578;2022-11-04T04:01:54;3.13;;;1.65;;
59976;SDS011;45837;51.076;3.578;2022-11-04T04:04:26;2.65;;;1.40;;
59976;SDS011;45837;51.076;3.578;2022-11-04T04:07:00;3.47;;;1.63;;
59976;SDS011;45837;51.076;3.578;2022-11-04T04:09:47;1.88;;;1.20;;
59976;SDS011;45837;51.076;3.578;2022-11-04T04:12:25;3.00;;;1.50;;
59976;SDS011;45837;51.076;3.578;2022-11-04T04:15:10;3.65;;;1.70;;
59976;SDS011;45837;51.076;3.578;2022-11-04T04:17:45;3.20;;;1.50;;
59976;SDS011;45837;51.076;3.578;2022-11-04T04:20:21;1.67;;;0.98;;
59976;SDS011;45837;51.076;3.578;2022-11-04T04:22:51;3.23;;;1.30;;
59976;SDS011;45837;51.076;3.578;2022-11-04T04:25:21;2.80;;;1.52;;
59976;SDS011;45837;51.076;3.578;2022-11-04T04:28:08;2.05;;;1.38;;
59976;SDS011;45837;51.076;3.578;2022-11-04T04:30:37;3.05;;;1.30;;
59976;SDS011;45837;51.076;3.578;2022-11-04T04:33:05;3.22;;;1.60;;
59976;SDS011;45837;51.076;3.578;2022-11-04T04:35:36;5.85;;;1.55;;
59976;SDS011;45837;51.076;3.578;2022-11-04T04:38:13;3.72;;;1.63;;
59976;SDS011;45837;51.076;3.578;2022-11-04T04:41:12;2.92;;;1.42;;
59976;SDS011;45837;51.076;3.578;2022-11-04T04:43:59;2.33;;;1.20;;
59976;SDS011;45837;51.076;3.578;2022-11-04T04:46:43;2.65;;;1.30;;
59976;SDS011;45837;51.076;3.578;2022-11-04T04:49:11;2.65;;;1.20;;
59976;SDS011;45837;51.076;3.578;2022-11-04T04:51:38;3.30;;;1.45;;
59976;SDS011;45837;51.076;3.578;2022-11-04T04:54:07;3.03;;;1.33;;
59976;SDS011;45837;51.076;3.578;2022-11-04T04:56:32;3.42;;;1.42;;
59976;SDS011;45837;51.076;3.578;2022-11-04T04:58:58;2.63;;;1.27;;
59976;SDS011;45837;51.076;3.578;2022-11-04T05:01:24;2.60;;;1.23;;
59976;SDS011;45837;51.076;3.578;2022-11-04T05:03:50;2.83;;;1.50;;
59976;SDS011;45837;51.076;3.578;2022-11-04T05:06:15;3.00;;;1.40;;
59976;SDS011;45837;51.076;3.578;2022-11-04T05:08:41;2.88;;;1.35;;
59976;SDS011;45837;51.076;3.578;2022-11-04T05:11:07;2.30;;;1.38;;
59976;SDS011;45837;51.076;3.578;2022-11-04T05:13:33;3.58;;;1.50;;
59976;SDS011;45837;51.076;3.578;2022-11-04T05:16:03;2.42;;;1.40;;
59976;SDS011;45837;51.076;3.578;2022-11-04T05:18:30;2.67;;;1.58;;
59976;SDS011;45837;51.076;3.578;2022-11-04T05:20:56;2.22;;;1.23;;
59976;SDS011;45837;51.076;3.578;2022-11-04T05:23:22;2.17;;;1.10;;
59976;SDS011;45837;51.076;3.578;2022-11-04T05:25:48;1.90;;;1.30;;
59976;SDS011;45837;51.076;3.578;2022-11-04T05:28:13;2.83;;;1.30;;
59976;SDS011;45837;51.076;3.578;2022-11-04T05:30:39;2.47;;;1.20;;
59976;SDS011;45837;51.076;3.578;2022-11-04T05:33:05;2.85;;;1.27;;
59976;SDS011;45837;51.076;3.578;2022-11-04T05:35:31;3.05;;;1.58;;
59976;SDS011;45837;51.076;3.578;2022-11-04T05:37:58;2.92;;;1.33;;
59976;SDS011;45837;51.076;3.578;2022-11-04T05:40:24;2.67;;;1.38;;
59976;SDS011;45837;51.076;3.578;2022-11-04T05:42:50;2.83;;;1.67;;
59976;SDS011;45837;51.076;3.578;2022-11-04T05:45:15;2.25;;;1.17;;
59976;SDS011;45837;51.076;3.578;2022-11-04T05:47:41;2.80;;;1.50;;
59976;SDS011;45837;51.076;3.578;2022-11-04T05:50:07;2.25;;;1.40;;
59976;SDS011;45837;51.076;3.578;2022-11-04T05:52:33;2.97;;;1.23;;
59976;SDS011;45837;51.076;3.578;2022-11-04T05:54:59;3.45;;;1.30;;
59976;SDS011;45837;51.076;3.578;2022-11-04T05:57:25;2.30;;;1.27;;
59976;SDS011;45837;51.076;3.578;2022-11-04T05:59:50;1.92;;;1.20;;
59976;SDS011;45837;51.076;3.578;2022-11-04T06:02:16;3.45;;;1.60;;
59976;SDS011;45837;51.076;3.578;2022-11-04T06:04:42;2.65;;;1.50;;
59976;SDS011;45837;51.076;3.578;2022-11-04T06:07:08;2.10;;;1.20;;
59976;SDS011;45837;51.076;3.578;2022-11-04T06:09:34;2.13;;;1.20;;
59976;SDS011;45837;51.076;3.578;2022-11-04T06:12:06;2.95;;;1.80;;
59976;SDS011;45837;51.076;3.578;2022-11-04T06:14:34;2.63;;;1.33;;
59976;SDS011;45837;51.076;3.578;2022-11-04T06:17:00;2.85;;;1.65;;
59976;SDS011;45837;51.076;3.578;2022-11-04T06:19:26;3.35;;;1.42;;
59976;SDS011;45837;51.076;3.578;2022-11-04T06:21:51;2.33;;;1.30;;
59976;SDS011;45837;51.076;3.578;2022-11-04T06:24:17;2.33;;;1.15;;
59976;SDS011;45837;51.076;3.578;2022-11-04T06:26:43;1.80;;;1.15;;
59976;SDS011;45837;51.076;3.578;2022-11-04T06:29:09;2.50;;;1.42;;
59976;SDS011;45837;51.076;3.578;2022-11-04T06:31:35;3.38;;;1.40;;
59976;SDS011;45837;51.076;3.578;2022-11-04T06:34:02;4.32;;;1.70;;
59976;SDS011;45837;51.076;3.578;2022-11-04T06:36:28;3.30;;;1.20;;
59976;SDS011;45837;51.076;3.578;2022-11-04T06:38:53;9.10;;;1.63;;
59976;SDS011;45837;51.076;3.578;2022-11-04T06:41:19;4.50;;;1.60;;
59976;SDS011;45837;51.076;3.578;2022-11-04T06:43:45;8.93;;;1.70;;
59976;SDS011;45837;51.076;3.578;2022-11-04T06:46:24;3.58;;;1.65;;
59976;SDS011;45837;51.076;3.578;2022-11-04T06:48:52;7.47;;;1.27;;
59976;SDS011;45837;51.076;3.578;2022-11-04T06:51:20;6.50;;;1.63;;
59976;SDS011;45837;51.076;3.578;2022-11-04T06:53:45;5.47;;;1.67;;
59976;SDS011;45837;51.076;3.578;2022-11-04T06:56:11;5.90;;;1.50;;
59976;SDS011;45837;51.076;3.578;2022-11-04T06:58:37;8.68;;;1.58;;
59976;SDS011;45837;51.076;3.578;2022-11-04T07:01:03;3.08;;;1.40;;
59976;SDS011;45837;51.076;3.578;2022-11-04T07:03:29;3.72;;;1.50;;
59976;SDS011;45837;51.076;3.578;2022-11-04T07:05:54;4.85;;;1.45;;
59976;SDS011;45837;51.076;3.578;2022-11-04T07:08:20;3.60;;;1.42;;
59976;SDS011;45837;51.076;3.578;2022-11-04T07:10:46;8.50;;;1.40;;
59976;SDS011;45837;51.076;3.578;2022-11-04T07:13:12;9.30;;;1.70;;
59976;SDS011;45837;51.076;3.578;2022-11-04T07:15:38;7.75;;;1.38;;
59976;SDS011;45837;51.076;3.578;2022-11-04T07:18:04;4.38;;;1.30;;
59976;SDS011;45837;51.076;3.578;2022-11-04T07:20:31;6.10;;;2.00;;
59976;SDS011;45837;51.076;3.578;2022-11-04T07:22:58;8.73;;;1.45;;
59976;SDS011;45837;51.076;3.578;2022-11-04T07:25:24;9.07;;;1.67;;
59976;SDS011;45837;51.076;3.578;2022-11-04T07:27:49;7.82;;;1.70;;
59976;SDS011;45837;51.076;3.578;2022-11-04T07:30:15;7.10;;;2.20;;
59976;SDS011;45837;51.076;3.578;2022-11-04T07:32:44;4.57;;;1.58;;
59976;SDS011;45837;51.076;3.578;2022-11-04T07:35:10;10.70;;;1.38;;
59976;SDS011;45837;51.076;3.578;2022-11-04T07:37:36;8.52;;;1.98;;
59976;SDS011;45837;51.076;3.578;2022-11-04T07:40:02;14.73;;;2.00;;
59976;SDS011;45837;51.076;3.578;2022-11-04T07:42:29;9.32;;;2.40;;
59976;SDS011;45837;51.076;3.578;2022-11-04T07:45:03;14.88;;;2.55;;
59976;SDS011;45837;51.076;3.578;2022-11-04T07:47:29;10.18;;;1.90;;
59976;SDS011;45837;51.076;3.578;2022-11-04T07:49:55;8.73;;;1.80;;
59976;SDS011;45837;51.076;3.578;2022-11-04T07:52:21;8.93;;;2.03;;
59976;SDS011;45837;51.076;3.578;2022-11-04T07:54:48;15.85;;;2.22;;
59976;SDS011;45837;51.076;3.578;2022-11-04T07:57:14;10.45;;;1.80;;
59976;SDS011;45837;51.076;3.578;2022-11-04T07:59:40;9.98;;;2.00;;
59976;SDS011;45837;51.076;3.578;2022-11-04T08:02:05;9.05;;;1.70;;
59976;SDS011;45837;51.076;3.578;2022-11-04T08:04:31;9.07;;;2.08;;
59976;SDS011;45837;51.076;3.578;2022-11-04T08:06:57;10.90;;;2.00;;
59976;SDS011;45837;51.076;3.578;2022-11-04T08:09:23;7.97;;;2.03;;
59976;SDS011;45837;51.076;3.578;2022-11-04T08:11:49;14.80;;;2.17;;
59976;SDS011;45837;51.076;3.578;2022-11-04T08:14:15;7.05;;;1.98;;
59976;SDS011;45837;51.076;3.578;2022-11-04T08:16:41;5.75;;;2.35;;
59976;SDS011;45837;51.076;3.578;2022-11-04T08:19:07;6.68;;;2.35;;
59976;SDS011;45837;51.076;3.578;2022-11-04T08:21:33;6.95;;;2.35;;
59976;SDS011;45837;51.076;3.578;2022-11-04T08:23:59;13.38;;;1.95;;
59976;SDS011;45837;51.076;3.578;2022-11-04T08:26:27;7.28;;;2.20;;
59976;SDS011;45837;51.076;3.578;2022-11-04T08:28:53;7.65;;;1.50;;
59976;SDS011;45837;51.076;3.578;2022-11-04T08:31:19;12.48;;;2.88;;
59976;SDS011;45837;51.076;3.578;2022-11-04T08:33:53;8.20;;;2.40;;
59976;SDS011;45837;51.076;3.578;2022-11-04T08:36:24;9.48;;;2.17;;
59976;SDS011;45837;51.076;3.578;2022-11-04T08:38:51;8.70;;;2.38;;
59976;SDS011;45837;51.076;3.578;2022-11-04T08:41:19;6.63;;;2.35;;
59976;SDS011;45837;51.076;3.578;2022-11-04T08:43:48;7.53;;;2.22;;
59976;SDS011;45837;51.076;3.578;2022-11-04T08:46:14;7.13;;;2.10;;
59976;SDS011;45837;51.076;3.578;2022-11-04T08:48:40;7.28;;;2.63;;
59976;SDS011;45837;51.076;3.578;2022-11-04T08:51:10;9.77;;;2.20;;
59976;SDS011;45837;51.076;3.578;2022-11-04T08:53:38;7.88;;;2.17;;
59976;SDS011;45837;51.076;3.578;2022-11-04T08:56:15;6.25;;;2.30;;
59976;SDS011;45837;51.076;3.578;2022-11-04T08:58:42;8.85;;;2.50;;
59976;SDS011;45837;51.076;3.578;2022-11-04T09:01:08;7.70;;;2.47;;
59976;SDS011;45837;51.076;3.578;2022-11-04T09:03:38;6.63;;;2.63;;
59976;SDS011;45837;51.076;3.578;2022-11-04T09:06:05;7.65;;;2.13;;
59976;SDS011;45837;51.076;3.578;2022-11-04T09:08:37;7.15;;;2.20;;
59976;SDS011;45837;51.076;3.578;2022-11-04T09:11:06;8.48;;;2.53;;
59976;SDS011;45837;51.076;3.578;2022-11-04T09:13:34;4.93;;;2.05;;
59976;SDS011;45837;51.076;3.578;2022-11-04T09:16:01;7.25;;;2.33;;
59976;SDS011;45837;51.076;3.578;2022-11-04T09:18:28;7.75;;;2.33;;
59976;SDS011;45837;51.076;3.578;2022-11-04T09:20:58;6.57;;;2.20;;
59976;SDS011;45837;51.076;3.578;2022-11-04T09:23:24;13.93;;;2.38;;
59976;SDS011;45837;51.076;3.578;2022-11-04T09:25:51;7.82;;;2.17;;
59976;SDS011;45837;51.076;3.578;2022-11-04T09:28:16;5.85;;;1.70;;
59976;SDS011;45837;51.076;3.578;2022-11-04T09:30:42;9.25;;;2.35;;
59976;SDS011;45837;51.076;3.578;2022-11-04T09:33:08;6.95;;;2.15;;
59976;SDS011;45837;51.076;3.578;2022-11-04T09:35:34;8.13;;;2.20;;
59976;SDS011;45837;51.076;3.578;2022-11-04T09:38:00;5.28;;;2.17;;
59976;SDS011;45837;51.076;3.578;2022-11-04T09:40:26;5.22;;;1.65;;
59976;SDS011;45837;51.076;3.578;2022-11-04T09:45:43;7.55;;;2.33;;
59976;SDS011;45837;51.076;3.578;2022-11-04T09:48:18;7.30;;;2.35;;
59976;SDS011;45837;51.076;3.578;2022-11-04T09:51:08;6.00;;;2.13;;
59976;SDS011;45837;51.076;3.578;2022-11-04T09:53:36;5.50;;;2.30;;
59976;SDS011;45837;51.076;3.578;2022-11-04T09:58:41;6.93;;;2.50;;
59976;SDS011;45837;51.076;3.578;2022-11-04T10:04:07;5.88;;;1.90;;
59976;SDS011;45837;51.076;3.578;2022-11-04T10:07:17;17.98;;;2.15;;
59976;SDS011;45837;51.076;3.578;2022-11-04T10:26:25;4.47;;;2.33;;
59976;SDS011;45837;51.076;3.578;2022-11-04T10:29:02;5.78;;;2.40;;
59976;SDS011;45837;51.076;3.578;2022-11-04T10:31:30;4.80;;;2.55;;
59976;SDS011;45837;51.076;3.578;2022-11-04T10:33:58;5.78;;;2.67;;
59976;SDS011;45837;51.076;3.578;2022-11-04T10:36:29;5.90;;;1.90;;
59976;SDS011;45837;51.076;3.578;2022-11-04T10:38:56;4.47;;;2.30;;
59976;SDS011;45837;51.076;3.578;2022-11-04T10:41:32;4.70;;;2.13;;
59976;SDS011;45837;51.076;3.578;2022-11-04T10:44:05;5.35;;;2.63;;
59976;SDS011;45837;51.076;3.578;2022-11-04T10:52:16;4.10;;;1.92;;
59976;SDS011;45837;51.076;3.578;2022-11-04T10:54:43;3.60;;;1.98;;
59976;SDS011;45837;51.076;3.578;2022-11-04T10:57:12;6.00;;;2.45;;
59976;SDS011;45837;51.076;3.578;2022-11-04T10:59:58;6.43;;;2.15;;
59976;SDS011;45837;51.076;3.578;2022-11-04T11:07:46;5.38;;;2.15;;
59976;SDS011;45837;51.076;3.578;2022-11-04T11:10:18;5.03;;;2.25;;
59976;SDS011;45837;51.076;3.578;2022-11-04T11:13:04;5.80;;;2.15;;
59976;SDS011;45837;51.076;3.578;2022-11-04T11:15:33;4.28;;;2.00;;
59976;SDS011;45837;51.076;3.578;2022-11-04T11:20:32;5.40;;;2.25;;
59976;SDS011;45837;51.076;3.578;2022-11-04T11:23:02;4.35;;;2.45;;
59976;SDS011;45837;51.076;3.578;2022-11-04T11:25:33;5.40;;;2.00;;
59976;SDS011;45837;51.076;3.578;2022-11-04T11:28:10;7.10;;;2.45;;
59976;SDS011;45837;51.076;3.578;2022-11-04T11:36:13;11.68;;;2.38;;
59976;SDS011;45837;51.076;3.578;2022-11-04T11:41:58;8.55;;;2.33;;
59976;SDS011;45837;51.076;3.578;2022-11-04T11:44:28;5.80;;;2.05;;
59976;SDS011;45837;51.076;3.578;2022-11-04T11:47:02;11.77;;;2.83;;
59976;SDS011;45837;51.076;3.578;2022-11-04T11:49:40;14.70;;;2.30;;
59976;SDS011;45837;51.076;3.578;2022-11-04T11:54:47;5.72;;;2.20;;
59976;SDS011;45837;51.076;3.578;2022-11-04T12:00:13;10.50;;;2.10;;
59976;SDS011;45837;51.076;3.578;2022-11-04T12:11:18;6.95;;;2.22;;
59976;SDS011;45837;51.076;3.578;2022-11-04T12:13:47;9.95;;;2.40;;
59976;SDS011;45837;51.076;3.578;2022-11-04T12:19:17;38.78;;;3.78;;
59976;SDS011;45837;51.076;3.578;2022-11-04T12:27:31;22.38;;;4.32;;
59976;SDS011;45837;51.076;3.578;2022-11-04T12:30:19;38.20;;;4.63;;
59976;SDS011;45837;51.076;3.578;2022-11-04T12:36:00;23.52;;;3.60;;
59976;SDS011;45837;51.076;3.578;2022-11-04T12:43:42;19.83;;;3.67;;
59976;SDS011;45837;51.076;3.578;2022-11-04T12:57:50;21.50;;;3.58;;
59976;SDS011;45837;51.076;3.578;2022-11-04T13:00:25;23.98;;;2.90;;
59976;SDS011;45837;51.076;3.578;2022-11-04T13:03:07;23.38;;;4.43;;
59976;SDS011;45837;51.076;3.578;2022-11-04T13:06:01;17.60;;;3.33;;
59976;SDS011;45837;51.076;3.578;2022-11-04T13:08:36;26.10;;;3.38;;
59976;SDS011;45837;51.076;3.578;2022-11-04T13:11:09;18.55;;;3.08;;
59976;SDS011;45837;51.076;3.578;2022-11-04T13:14:11;27.80;;;3.15;;
59976;SDS011;45837;51.076;3.578;2022-11-04T13:16:46;27.13;;;3.83;;
59976;SDS011;45837;51.076;3.578;2022-11-04T13:21:48;20.25;;;3.00;;
59976;SDS011;45837;51.076;3.578;2022-11-04T13:24:25;26.95;;;3.00;;
59976;SDS011;45837;51.076;3.578;2022-11-04T13:26:55;18.65;;;3.35;;
59976;SDS011;45837;51.076;3.578;2022-11-04T13:29:26;16.80;;;2.92;;
59976;SDS011;45837;51.076;3.578;2022-11-04T13:38:00;15.70;;;2.33;;
59976;SDS011;45837;51.076;3.578;2022-11-04T13:40:51;12.77;;;2.80;;
59976;SDS011;45837;51.076;3.578;2022-11-04T13:43:45;22.02;;;2.35;;
59976;SDS011;45837;51.076;3.578;2022-11-04T13:46:17;14.00;;;2.58;;
59976;SDS011;45837;51.076;3.578;2022-11-04T13:48:53;11.80;;;1.98;;
59976;SDS011;45837;51.076;3.578;2022-11-04T13:51:35;17.50;;;2.88;;
59976;SDS011;45837;51.076;3.578;2022-11-04T13:54:02;18.95;;;2.30;;
59976;SDS011;45837;51.076;3.578;2022-11-04T13:56:32;17.65;;;2.50;;
59976;SDS011;45837;51.076;3.578;2022-11-04T14:01:43;13.18;;;2.70;;
59976;SDS011;45837;51.076;3.578;2022-11-04T14:06:53;15.57;;;2.83;;
59976;SDS011;45837;51.076;3.578;2022-11-04T14:09:35;8.50;;;2.10;;
59976;SDS011;45837;51.076;3.578;2022-11-04T14:14:38;9.77;;;2.15;;
59976;SDS011;45837;51.076;3.578;2022-11-04T14:23:03;7.03;;;2.07;;
59976;SDS011;45837;51.076;3.578;2022-11-04T14:27:58;5.43;;;1.45;;
59976;SDS011;45837;51.076;3.578;2022-11-04T14:30:27;14.40;;;2.00;;
59976;SDS011;45837;51.076;3.578;2022-11-04T14:33:07;5.32;;;1.60;;
59976;SDS011;45837;51.076;3.578;2022-11-04T14:35:53;6.35;;;1.80;;
59976;SDS011;45837;51.076;3.578;2022-11-04T14:38:24;12.50;;;2.38;;
59976;SDS011;45837;51.076;3.578;2022-11-04T14:43:45;12.52;;;2.03;;
59976;SDS011;45837;51.076;3.578;2022-11-04T14:46:16;13.18;;;2.35;;
59976;SDS011;45837;51.076;3.578;2022-11-04T14:51:18;10.88;;;1.88;;
59976;SDS011;45837;51.076;3.578;2022-11-04T14:54:04;16.45;;;2.80;;
59976;SDS011;45837;51.076;3.578;2022-11-04T14:56:45;14.93;;;2.50;;
59976;SDS011;45837;51.076;3.578;2022-11-04T14:59:19;18.63;;;3.20;;
59976;SDS011;45837;51.076;3.578;2022-11-04T15:01:46;11.32;;;2.22;;
59976;SDS011;45837;51.076;3.578;2022-11-04T15:06:55;19.98;;;2.53;;
59976;SDS011;45837;51.076;3.578;2022-11-04T15:09:33;14.35;;;2.08;;
59976;SDS011;45837;51.076;3.578;2022-11-04T15:14:52;21.77;;;2.83;;
59976;SDS011;45837;51.076;3.578;2022-11-04T15:17:19;12.23;;;2.33;;
59976;SDS011;45837;51.076;3.578;2022-11-04T15:19:49;20.67;;;2.63;;
59976;SDS011;45837;51.076;3.578;2022-11-04T15:22:17;12.02;;;2.08;;
59976;SDS011;45837;51.076;3.578;2022-11-04T15:24:44;10.82;;;1.77;;
59976;SDS011;45837;51.076;3.578;2022-11-04T15:27:15;23.30;;;2.45;;
59976;SDS011;45837;51.076;3.578;2022-11-04T15:29:59;11.00;;;2.38;;
59976;SDS011;45837;51.076;3.578;2022-11-04T15:32:31;20.73;;;3.22;;
59976;SDS011;45837;51.076;3.578;2022-11-04T15:34:56;13.15;;;2.17;;
59976;SDS011;45837;51.076;3.578;2022-11-04T15:37:24;12.52;;;3.38;;
59976;SDS011;45837;51.076;3.578;2022-11-04T15:39:54;13.27;;;3.40;;
59976;SDS011;45837;51.076;3.578;2022-11-04T15:42:22;18.23;;;2.83;;
59976;SDS011;45837;51.076;3.578;2022-11-04T15:56:17;14.98;;;4.25;;
59976;SDS011;45837;51.076;3.578;2022-11-04T15:58:50;51.72;;;18.00;;
59976;SDS011;45837;51.076;3.578;2022-11-04T16:01:17;93.55;;;40.15;;
59976;SDS011;45837;51.076;3.578;2022-11-04T16:04:04;87.85;;;37.55;;
59976;SDS011;45837;51.076;3.578;2022-11-04T16:06:38;86.15;;;38.33;;
59976;SDS011;45837;51.076;3.578;2022-11-04T16:11:38;100.45;;;37.50;;
59976;SDS011;45837;51.076;3.578;2022-11-04T16:14:20;89.30;;;34.33;;
59976;SDS011;45837;51.076;3.578;2022-11-04T16:16:48;87.38;;;32.83;;
59976;SDS011;45837;51.076;3.578;2022-11-04T16:19:17;91.15;;;31.17;;
59976;SDS011;45837;51.076;3.578;2022-11-04T16:21:46;78.75;;;31.00;;
59976;SDS011;45837;51.076;3.578;2022-11-04T16:24:16;75.78;;;27.25;;
59976;SDS011;45837;51.076;3.578;2022-11-04T16:26:46;84.82;;;26.42;;
59976;SDS011;45837;51.076;3.578;2022-11-04T16:31:45;73.57;;;24.42;;
59976;SDS011;45837;51.076;3.578;2022-11-04T16:34:11;68.75;;;24.08;;
59976;SDS011;45837;51.076;3.578;2022-11-04T16:36:38;64.13;;;24.10;;
59976;SDS011;45837;51.076;3.578;2022-11-04T16:39:04;59.38;;;21.67;;
59976;SDS011;45837;51.076;3.578;2022-11-04T16:41:34;86.80;;;22.08;;
59976;SDS011;45837;51.076;3.578;2022-11-04T16:44:05;60.08;;;21.33;;
59976;SDS011;45837;51.076;3.578;2022-11-04T16:46:40;58.78;;;20.88;;
59976;SDS011;45837;51.076;3.578;2022-11-04T16:49:07;57.63;;;20.17;;
59976;SDS011;45837;51.076;3.578;2022-11-04T16:51:34;72.20;;;21.30;;
59976;SDS011;45837;51.076;3.578;2022-11-04T16:54:00;66.75;;;19.98;;
59976;SDS011;45837;51.076;3.578;2022-11-04T16:56:26;73.95;;;20.55;;
59976;SDS011;45837;51.076;3.578;2022-11-04T16:58:52;57.72;;;19.58;;
59976;SDS011;45837;51.076;3.578;2022-11-04T17:01:17;56.30;;;18.08;;
59976;SDS011;45837;51.076;3.578;2022-11-04T17:03:45;93.18;;;17.85;;
59976;SDS011;45837;51.076;3.578;2022-11-04T17:06:11;52.15;;;17.58;;
59976;SDS011;45837;51.076;3.578;2022-11-04T17:08:39;59.78;;;15.65;;
59976;SDS011;45837;51.076;3.578;2022-11-04T17:11:06;56.78;;;16.00;;
59976;SDS011;45837;51.076;3.578;2022-11-04T17:13:33;53.20;;;15.07;;
59976;SDS011;45837;51.076;3.578;2022-11-04T17:15:58;45.35;;;14.40;;
59976;SDS011;45837;51.076;3.578;2022-11-04T17:18:24;58.47;;;15.00;;
59976;SDS011;45837;51.076;3.578;2022-11-04T17:20:54;48.20;;;14.77;;
59976;SDS011;45837;51.076;3.578;2022-11-04T17:23:20;39.08;;;13.38;;
59976;SDS011;45837;51.076;3.578;2022-11-04T17:25:46;48.75;;;12.98;;
59976;SDS011;45837;51.076;3.578;2022-11-04T17:28:13;46.85;;;12.63;;
59976;SDS011;45837;51.076;3.578;2022-11-04T17:30:39;49.92;;;13.52;;
59976;SDS011;45837;51.076;3.578;2022-11-04T17:33:08;39.70;;;11.77;;
59976;SDS011;45837;51.076;3.578;2022-11-04T17:35:37;34.80;;;11.88;;
59976;SDS011;45837;51.076;3.578;2022-11-04T17:38:03;51.10;;;12.43;;
59976;SDS011;45837;51.076;3.578;2022-11-04T17:40:29;40.63;;;11.10;;
59976;SDS011;45837;51.076;3.578;2022-11-04T17:42:55;35.58;;;10.98;;
59976;SDS011;45837;51.076;3.578;2022-11-04T17:45:40;38.25;;;10.98;;
59976;SDS011;45837;51.076;3.578;2022-11-04T17:48:07;37.80;;;10.55;;
59976;SDS011;45837;51.076;3.578;2022-11-04T17:50:36;28.20;;;10.15;;